Time;durP1;ratioP1;P1;durP2;ratioP2;P2;SDS_P1;SDS_P2;PMS_P1;PMS_P2;Temp;Humidity;BMP_temperature;BMP_pressure;BME280_temperature;BME280_humidity;BME280_pressure;Samples;Min_cycle;Max_cycle;Signal;HPM_P1;HPM_P2
2023/07/19 00:00:37;;;;;;;90.13;53.80;;;20.60;69.50;;;;;;4944386;28;94971;-46
2023/07/19 00:03:03;;;;;;;89.90;53.72;;;20.60;69.50;;;;;;4965682;28;98545;-52
2023/07/19 00:05:29;;;;;;;89.35;53.53;;;20.60;69.50;;;;;;4965785;28;96842;-45
2023/07/19 00:07:55;;;;;;;89.50;53.63;;;20.60;69.50;;;;;;4966700;28;97803;-48
2023/07/19 00:10:20;;;;;;;89.28;53.80;;;20.60;69.80;;;;;;4962920;28;95030;-47
2023/07/19 00:12:46;;;;;;;89.30;53.85;;;20.60;69.80;;;;;;4975036;28;94428;-49
2023/07/19 00:15:11;;;;;;;89.05;53.88;;;20.50;70.00;;;;;;4960490;28;96880;-47
2023/07/19 00:17:37;;;;;;;89.47;53.90;;;20.50;69.80;;;;;;4952416;28;96847;-53
2023/07/19 00:20:04;;;;;;;89.80;53.67;;;20.50;69.80;;;;;;4960521;28;97840;-52
2023/07/19 00:22:31;;;;;;;89.85;53.75;;;20.50;69.80;;;;;;4964139;28;94451;-54
2023/07/19 00:24:57;;;;;;;89.40;53.67;;;20.50;70.10;;;;;;4963257;28;95962;-53
2023/07/19 00:27:22;;;;;;;90.78;53.90;;;20.50;70.00;;;;;;4968198;28;95816;-54
2023/07/19 00:29:48;;;;;;;90.05;53.92;;;20.40;70.20;;;;;;4965215;28;96859;-43
2023/07/19 00:32:13;;;;;;;88.53;53.78;;;20.50;70.30;;;;;;4964431;28;95731;-50
2023/07/19 00:34:39;;;;;;;91.80;54.05;;;20.40;70.20;;;;;;4967185;28;97145;-52
2023/07/19 00:37:05;;;;;;;89.45;53.75;;;20.40;70.30;;;;;;4966653;28;94797;-50
2023/07/19 00:39:30;;;;;;;88.55;53.55;;;20.40;70.40;;;;;;4962725;28;95045;-49
2023/07/19 00:41:57;;;;;;;91.07;53.90;;;20.30;70.30;;;;;;4966764;28;94704;-45
2023/07/19 00:44:22;;;;;;;88.35;53.53;;;20.40;70.50;;;;;;4962186;28;95432;-39
2023/07/19 00:46:48;;;;;;;89.10;53.75;;;20.30;70.50;;;;;;4968541;28;95356;-40
2023/07/19 00:49:14;;;;;;;89.03;53.97;;;20.30;70.80;;;;;;4971141;28;98310;-40
2023/07/19 00:51:41;;;;;;;89.75;53.65;;;20.30;70.70;;;;;;4946406;28;96760;-38
2023/07/19 00:54:08;;;;;;;88.15;53.40;;;20.30;70.40;;;;;;4967814;28;96252;-38
2023/07/19 00:56:33;;;;;;;88.05;53.50;;;20.20;70.70;;;;;;4950507;28;95830;-39
2023/07/19 00:59:02;;;;;;;88.30;53.40;;;20.30;70.40;;;;;;4964725;28;94742;-39
2023/07/19 01:01:28;;;;;;;88.38;53.40;;;20.20;70.70;;;;;;4962070;28;94772;-39
2023/07/19 01:03:54;;;;;;;89.13;53.83;;;20.20;71.10;;;;;;4966630;28;94707;-40
2023/07/19 01:06:19;;;;;;;88.05;53.53;;;20.20;70.90;;;;;;4964346;28;95474;-39
2023/07/19 01:08:46;;;;;;;89.18;53.45;;;20.20;70.50;;;;;;4959445;28;95026;-38
2023/07/19 01:11:12;;;;;;;89.05;53.50;;;20.20;71.10;;;;;;4963016;28;95246;-39
2023/07/19 01:13:38;;;;;;;89.30;53.45;;;20.10;71.20;;;;;;4965548;28;94666;-43
2023/07/19 01:16:04;;;;;;;88.10;53.63;;;20.10;70.90;;;;;;4959787;28;96640;-38
2023/07/19 01:18:29;;;;;;;88.80;53.90;;;20.10;70.80;;;;;;4961621;28;95298;-39
2023/07/19 01:20:55;;;;;;;88.93;53.65;;;20.20;71.20;;;;;;4963767;28;96243;-38
2023/07/19 01:23:20;;;;;;;90.43;53.35;;;20.10;71.40;;;;;;4966078;28;95691;-38
2023/07/19 01:25:46;;;;;;;90.13;53.97;;;20.10;71.50;;;;;;4949415;28;94772;-39
2023/07/19 01:28:12;;;;;;;89.05;53.67;;;20.10;71.10;;;;;;4963822;28;95287;-38
2023/07/19 01:30:37;;;;;;;87.93;53.38;;;20.00;71.30;;;;;;4969065;28;97030;-38
2023/07/19 01:33:03;;;;;;;89.72;53.80;;;20.00;71.70;;;;;;4968794;28;97003;-39
2023/07/19 01:35:29;;;;;;;88.90;53.38;;;20.00;71.20;;;;;;4966955;28;94708;-38
2023/07/19 01:37:54;;;;;;;88.13;53.33;;;20.00;70.60;;;;;;4967844;28;98701;-39
2023/07/19 01:40:20;;;;;;;89.40;53.63;;;20.10;71.00;;;;;;4966227;28;97658;-40
2023/07/19 01:42:46;;;;;;;88.72;53.63;;;20.00;71.00;;;;;;4965729;28;95563;-38
2023/07/19 01:45:11;;;;;;;88.85;53.63;;;20.00;71.30;;;;;;4964827;28;94992;-39
2023/07/19 01:47:37;;;;;;;88.20;53.28;;;20.00;71.30;;;;;;4961649;28;99188;-39
2023/07/19 01:50:03;;;;;;;88.82;53.88;;;20.00;71.30;;;;;;4961004;28;95519;-39
2023/07/19 01:52:29;;;;;;;88.82;53.50;;;20.00;70.40;;;;;;4959853;28;95707;-40
2023/07/19 01:54:54;;;;;;;88.82;53.70;;;20.00;71.90;;;;;;4963418;28;95926;-47
2023/07/19 01:57:21;;;;;;;88.82;53.60;;;20.00;71.30;;;;;;4967208;28;96414;-48
2023/07/19 01:59:46;;;;;;;87.70;53.25;;;20.00;70.40;;;;;;4961981;28;99559;-46
2023/07/19 02:02:12;;;;;;;89.57;53.95;;;20.00;70.40;;;;;;4961882;28;95685;-47
2023/07/19 02:04:37;;;;;;;89.15;53.65;;;20.00;70.70;;;;;;4960553;28;98085;-53
2023/07/19 02:07:03;;;;;;;88.32;53.40;;;20.00;70.70;;;;;;4963843;28;98377;-54
2023/07/19 02:09:29;;;;;;;89.25;53.90;;;20.00;70.50;;;;;;4957009;28;98548;-49
2023/07/19 02:11:54;;;;;;;88.90;53.35;;;20.00;71.10;;;;;;4963840;28;95934;-44
2023/07/19 02:14:20;;;;;;;89.88;53.72;;;20.00;71.50;;;;;;4963681;28;95020;-50
2023/07/19 02:16:46;;;;;;;87.53;53.45;;;20.00;70.70;;;;;;4957273;28;98345;-50
2023/07/19 02:19:11;;;;;;;89.25;53.83;;;20.00;71.60;;;;;;4946996;28;96793;-45
2023/07/19 02:21:37;;;;;;;88.38;54.05;;;20.00;71.50;;;;;;4960419;28;94950;-55
2023/07/19 02:24:03;;;;;;;88.65;53.45;;;20.00;71.40;;;;;;4958771;28;96669;-50
2023/07/19 02:26:28;;;;;;;90.18;53.70;;;20.00;71.00;;;;;;4963096;28;95593;-50
2023/07/19 02:28:54;;;;;;;88.68;53.75;;;20.00;71.20;;;;;;4969795;28;96519;-50
2023/07/19 02:31:19;;;;;;;88.18;53.28;;;20.00;70.60;;;;;;4930247;28;96846;-45
2023/07/19 02:33:45;;;;;;;88.75;53.65;;;20.00;71.20;;;;;;4959966;28;94839;-45
2023/07/19 02:36:14;;;;;;;88.93;53.83;;;20.00;72.10;;;;;;4964284;28;101205;-45
2023/07/19 02:38:40;;;;;;;89.03;53.95;;;20.00;71.60;;;;;;4964397;28;97509;-46
2023/07/19 02:41:07;;;;;;;89.00;53.88;;;20.00;70.80;;;;;;4964036;28;96715;-49
2023/07/19 02:43:33;;;;;;;87.55;53.28;;;20.00;70.70;;;;;;4961232;28;97125;-52
2023/07/19 02:45:58;;;;;;;87.93;53.45;;;20.00;70.40;;;;;;4961300;28;94984;-48
2023/07/19 02:48:24;;;;;;;88.32;53.75;;;20.00;72.00;;;;;;4961244;28;95571;-51
2023/07/19 02:50:50;;;;;;;89.07;53.63;;;20.00;70.40;;;;;;4963245;28;96808;-53
2023/07/19 02:53:16;;;;;;;89.63;53.55;;;20.00;71.10;;;;;;4961188;28;96411;-48
2023/07/19 02:55:48;;;;;;;88.68;53.35;;;20.00;70.30;;;;;;4962837;28;95398;-51
2023/07/19 02:58:14;;;;;;;89.03;53.63;;;20.00;70.90;;;;;;4961469;28;94712;-50
2023/07/19 03:00:41;;;;;;;88.95;53.80;;;20.00;71.20;;;;;;4960702;28;96103;-50
2023/07/19 03:03:07;;;;;;;87.65;53.25;;;20.00;71.50;;;;;;4960286;28;97697;-51
2023/07/19 03:05:42;;;;;;;87.72;53.35;;;20.00;71.10;;;;;;4962280;28;95452;-47
2023/07/19 03:08:09;;;;;;;89.85;53.53;;;20.00;70.60;;;;;;4944723;28;95795;-52
2023/07/19 03:10:35;;;;;;;86.93;53.00;;;20.00;70.30;;;;;;4962050;28;96010;-45
2023/07/19 03:13:01;;;;;;;88.40;53.38;;;20.00;71.10;;;;;;4965300;28;95320;-52
2023/07/19 03:15:27;;;;;;;88.05;53.45;;;20.00;70.90;;;;;;4967540;28;96132;-40
2023/07/19 03:17:53;;;;;;;87.85;53.38;;;20.00;70.50;;;;;;4964694;28;96662;-38
2023/07/19 03:20:19;;;;;;;88.95;53.60;;;20.00;71.00;;;;;;4964193;28;96772;-40
2023/07/19 03:22:44;;;;;;;87.50;53.25;;;20.00;71.40;;;;;;4965018;28;95076;-38
2023/07/19 03:25:10;;;;;;;87.35;53.33;;;20.00;70.30;;;;;;4960455;28;96424;-38
2023/07/19 03:27:36;;;;;;;88.72;53.45;;;19.90;70.30;;;;;;4962207;28;96013;-38
2023/07/19 03:30:02;;;;;;;87.57;53.17;;;19.90;70.30;;;;;;4960959;28;95945;-40
2023/07/19 03:32:29;;;;;;;88.32;53.35;;;19.90;70.10;;;;;;4967134;28;94673;-39
2023/07/19 03:34:55;;;;;;;89.35;53.20;;;19.90;70.00;;;;;;4963186;28;96155;-38
2023/07/19 03:37:21;;;;;;;88.60;53.22;;;19.90;70.10;;;;;;4952413;28;95025;-39
2023/07/19 03:39:46;;;;;;;88.47;53.45;;;19.90;70.80;;;;;;4963378;28;94582;-41
2023/07/19 03:42:12;;;;;;;88.53;53.25;;;19.90;70.00;;;;;;4965565;28;95976;-38
2023/07/19 03:44:37;;;;;;;87.68;53.28;;;19.90;70.70;;;;;;4968519;28;94831;-38
2023/07/19 03:47:03;;;;;;;89.15;53.47;;;19.80;70.50;;;;;;4960773;28;97843;-39
2023/07/19 03:49:29;;;;;;;87.85;53.33;;;19.90;71.20;;;;;;4970014;28;94796;-39
2023/07/19 03:51:54;;;;;;;86.97;53.15;;;19.90;70.40;;;;;;4961333;28;97814;-39
2023/07/19 03:54:20;;;;;;;87.68;53.20;;;19.80;70.40;;;;;;4968551;28;94574;-39
2023/07/19 03:56:46;;;;;;;88.45;53.20;;;19.80;71.70;;;;;;4960156;28;96722;-39
2023/07/19 03:59:12;;;;;;;87.63;53.22;;;19.80;70.20;;;;;;4965830;28;95534;-40
2023/07/19 04:01:38;;;;;;;87.80;53.15;;;19.80;71.20;;;;;;4961825;28;95485;-40
2023/07/19 04:04:04;;;;;;;88.00;53.13;;;19.80;70.60;;;;;;4962179;28;98548;-41
2023/07/19 04:06:31;;;;;;;87.32;53.20;;;19.80;70.60;;;;;;4958901;28;97963;-39
2023/07/19 04:08:56;;;;;;;87.05;53.20;;;19.80;71.40;;;;;;4958035;28;95797;-39
2023/07/19 04:11:23;;;;;;;87.13;53.22;;;19.80;71.10;;;;;;4961690;28;96405;-38
2023/07/19 04:13:48;;;;;;;87.45;53.13;;;19.80;70.90;;;;;;4957550;28;96328;-44
2023/07/19 04:16:14;;;;;;;89.28;53.35;;;19.70;70.80;;;;;;4956781;28;96359;-55
2023/07/19 04:18:39;;;;;;;88.13;53.05;;;19.70;71.10;;;;;;4963840;28;95210;-52
2023/07/19 04:21:05;;;;;;;87.70;53.03;;;19.70;70.70;;;;;;4958120;28;96026;-47
2023/07/19 04:23:31;;;;;;;86.95;52.90;;;19.70;70.70;;;;;;4957114;28;96926;-47
2023/07/19 04:25:56;;;;;;;87.18;53.15;;;19.70;70.40;;;;;;4957147;28;95846;-49
2023/07/19 04:28:22;;;;;;;86.78;52.95;;;19.70;70.40;;;;;;4954809;28;95633;-52
2023/07/19 04:30:48;;;;;;;87.65;53.15;;;19.70;70.70;;;;;;4941282;28;96337;-48
2023/07/19 04:33:15;;;;;;;86.57;52.78;;;19.70;70.70;;;;;;4955879;28;97033;-52
2023/07/19 04:35:41;;;;;;;87.55;53.25;;;19.70;70.10;;;;;;4961162;28;100063;-46
2023/07/19 04:38:07;;;;;;;87.72;52.88;;;19.70;71.20;;;;;;4961820;28;95248;-51
2023/07/19 04:40:32;;;;;;;88.00;53.15;;;19.70;69.80;;;;;;4959628;28;95400;-45
2023/07/19 04:42:59;;;;;;;87.35;53.03;;;19.70;70.80;;;;;;4955460;28;99507;-47
2023/07/19 04:45:25;;;;;;;88.30;53.03;;;19.70;70.70;;;;;;4955628;28;95603;-51
2023/07/19 04:47:51;;;;;;;87.20;52.97;;;19.70;70.60;;;;;;4959793;28;95390;-52
2023/07/19 04:50:17;;;;;;;86.97;53.15;;;19.70;70.50;;;;;;4965775;28;96937;-52
2023/07/19 04:52:45;;;;;;;87.80;52.97;;;19.60;70.30;;;;;;4959719;28;98612;-49
2023/07/19 04:55:12;;;;;;;87.32;52.80;;;19.70;70.60;;;;;;4959026;28;97479;-51
2023/07/19 04:57:38;;;;;;;88.03;52.95;;;19.60;69.70;;;;;;4965726;28;97880;-55
2023/07/19 05:00:05;;;;;;;87.97;53.35;;;19.60;70.80;;;;;;4957596;28;94969;-50
2023/07/19 05:02:30;;;;;;;87.30;52.92;;;19.70;70.10;;;;;;4964461;28;95056;-47
2023/07/19 05:04:56;;;;;;;87.13;52.90;;;19.70;70.20;;;;;;4959879;28;98688;-49
2023/07/19 05:07:22;;;;;;;88.32;53.03;;;19.70;70.70;;;;;;4959830;28;97129;-47
2023/07/19 05:09:47;;;;;;;87.65;53.08;;;19.70;70.30;;;;;;4957487;28;96740;-50
2023/07/19 05:12:17;;;;;;;87.07;53.15;;;19.80;70.60;;;;;;4929808;28;94545;-53
2023/07/19 05:14:43;;;;;;;87.47;53.25;;;19.80;69.80;;;;;;4949247;28;97437;-53
2023/07/19 05:17:08;;;;;;;88.05;53.55;;;19.80;69.90;;;;;;4960321;28;95272;-53
2023/07/19 05:19:34;;;;;;;87.78;53.17;;;19.80;69.30;;;;;;4961399;28;99110;-51
2023/07/19 05:22:00;;;;;;;87.95;53.10;;;19.80;69.40;;;;;;4945656;28;95265;-49
2023/07/19 05:24:26;;;;;;;88.00;53.10;;;19.80;69.90;;;;;;4965299;28;96047;-50
2023/07/19 05:26:51;;;;;;;88.00;53.25;;;19.80;69.60;;;;;;4962468;28;95363;-48
2023/07/19 05:29:17;;;;;;;87.00;53.05;;;19.90;69.40;;;;;;4967402;28;98470;-46
2023/07/19 05:31:42;;;;;;;88.13;52.90;;;19.80;69.40;;;;;;4969042;28;95658;-55
2023/07/19 05:34:08;;;;;;;88.95;53.15;;;19.90;69.30;;;;;;4945360;28;97508;-46
2023/07/19 05:36:34;;;;;;;87.40;53.45;;;19.90;69.40;;;;;;4962421;28;94532;-52
2023/07/19 05:39:01;;;;;;;86.70;52.90;;;19.90;70.10;;;;;;4964383;28;95264;-41
2023/07/19 05:41:27;;;;;;;87.25;52.90;;;19.90;69.10;;;;;;4952503;28;95400;-48
2023/07/19 05:43:53;;;;;;;88.80;53.35;;;19.90;69.30;;;;;;4969249;28;96938;-51
2023/07/19 05:46:18;;;;;;;87.35;53.08;;;19.90;69.70;;;;;;4954095;28;96277;-50
2023/07/19 05:48:44;;;;;;;87.32;53.08;;;20.00;69.20;;;;;;4969862;28;94978;-47
2023/07/19 05:51:10;;;;;;;87.65;53.25;;;20.00;69.00;;;;;;4962424;28;96158;-47
2023/07/19 05:53:35;;;;;;;87.55;53.25;;;20.00;69.40;;;;;;4962569;28;96807;-49
2023/07/19 05:56:01;;;;;;;87.97;53.03;;;20.00;69.30;;;;;;4948076;28;96394;-45
2023/07/19 05:58:28;;;;;;;88.82;53.03;;;20.00;69.50;;;;;;4964813;28;94476;-45
2023/07/19 06:00:54;;;;;;;88.45;53.28;;;20.00;69.00;;;;;;4963820;28;96103;-48
2023/07/19 06:03:19;;;;;;;88.75;53.15;;;20.00;69.20;;;;;;4949143;28;95138;-43
2023/07/19 06:05:45;;;;;;;89.32;53.03;;;20.00;69.00;;;;;;4967400;28;96411;-44
2023/07/19 06:08:12;;;;;;;87.00;53.05;;;20.00;69.00;;;;;;4963708;28;97731;-51
2023/07/19 06:10:38;;;;;;;87.15;53.15;;;20.00;69.00;;;;;;4965341;28;94888;-51
2023/07/19 06:13:04;;;;;;;88.75;53.40;;;20.00;69.00;;;;;;4959966;28;96616;-50
2023/07/19 06:15:33;;;;;;;87.75;53.10;;;20.00;69.20;;;;;;4964605;28;96831;-52
2023/07/19 06:18:00;;;;;;;88.93;53.05;;;20.00;68.80;;;;;;4969161;28;96980;-46
2023/07/19 06:20:25;;;;;;;88.18;53.17;;;20.00;69.00;;;;;;4964103;28;95711;-51
2023/07/19 06:22:51;;;;;;;87.72;52.88;;;20.00;69.10;;;;;;4970778;28;96122;-51
2023/07/19 06:25:17;;;;;;;88.63;53.03;;;20.00;68.80;;;;;;4968877;28;94707;-54
2023/07/19 06:27:43;;;;;;;87.03;52.95;;;20.00;68.70;;;;;;4963222;28;95161;-51
2023/07/19 06:30:10;;;;;;;87.78;53.40;;;20.00;68.70;;;;;;4964802;28;95332;-50
2023/07/19 06:32:39;;;;;;;87.10;53.03;;;20.10;68.70;;;;;;4960333;28;96604;-50
2023/07/19 06:35:05;;;;;;;87.65;53.03;;;20.10;68.80;;;;;;4949581;28;95882;-49
2023/07/19 06:37:32;;;;;;;87.72;53.47;;;20.10;68.60;;;;;;4966586;28;100513;-51
2023/07/19 06:40:00;;;;;;;87.72;53.33;;;20.20;68.20;;;;;;4964632;28;95026;-47
2023/07/19 06:42:25;;;;;;;87.90;53.38;;;20.20;68.40;;;;;;4960934;28;96414;-53
2023/07/19 06:44:51;;;;;;;88.00;53.30;;;20.20;68.10;;;;;;4948978;28;97007;-49
2023/07/19 06:47:16;;;;;;;88.97;53.30;;;20.20;67.80;;;;;;4965036;28;94810;-51
2023/07/19 06:49:42;;;;;;;89.22;53.17;;;20.30;67.50;;;;;;4957826;28;94253;-51
2023/07/19 06:52:08;;;;;;;87.97;53.38;;;20.30;67.40;;;;;;4967081;28;94737;-55
2023/07/19 06:54:33;;;;;;;87.88;53.28;;;20.30;68.90;;;;;;4945373;28;97877;-46
2023/07/19 06:56:59;;;;;;;88.53;53.65;;;20.30;67.70;;;;;;4966191;28;95654;-49
2023/07/19 06:59:26;;;;;;;89.60;53.53;;;20.30;68.00;;;;;;4965104;28;97738;-54
2023/07/19 07:01:52;;;;;;;88.78;53.42;;;20.30;67.60;;;;;;4962620;28;95952;-48
2023/07/19 07:04:17;;;;;;;89.68;53.40;;;20.30;68.00;;;;;;4963128;28;101475;-49
2023/07/19 07:06:43;;;;;;;88.15;53.08;;;20.30;67.70;;;;;;4961049;28;98812;-54
2023/07/19 07:09:08;;;;;;;88.60;53.35;;;20.30;68.00;;;;;;4945814;28;96319;-55
2023/07/19 07:11:34;;;;;;;88.40;53.05;;;20.30;67.90;;;;;;4965239;28;95670;-48
2023/07/19 07:14:00;;;;;;;88.55;53.38;;;20.30;68.90;;;;;;4965955;28;95498;-46
2023/07/19 07:16:28;;;;;;;89.43;53.58;;;20.40;67.80;;;;;;4962096;28;95159;-50
2023/07/19 07:18:53;;;;;;;88.43;53.80;;;20.40;67.80;;;;;;4962675;28;95988;-49
2023/07/19 07:21:19;;;;;;;88.13;53.58;;;20.40;68.40;;;;;;4960209;28;95676;-51
2023/07/19 07:23:45;;;;;;;87.82;53.15;;;20.40;67.50;;;;;;4971236;28;95471;-47
2023/07/19 07:26:11;;;;;;;89.70;53.22;;;20.40;67.80;;;;;;4964646;28;96641;-51
2023/07/19 07:28:37;;;;;;;90.60;53.30;;;20.50;67.40;;;;;;4964988;28;96520;-49
2023/07/19 07:31:08;;;;;;;89.18;53.35;;;20.50;67.50;;;;;;4967595;28;97573;-47
2023/07/19 07:33:35;;;;;;;89.18;53.33;;;20.60;67.00;;;;;;4948225;28;95355;-47
2023/07/19 07:36:00;;;;;;;88.10;53.28;;;20.70;67.10;;;;;;4964724;28;97383;-50
2023/07/19 07:38:27;;;;;;;88.93;53.30;;;20.70;66.40;;;;;;4969777;28;94425;-51
2023/07/19 07:41:01;;;;;;;88.93;53.50;;;20.70;66.80;;;;;;4968223;28;95519;-56
2023/07/19 07:43:28;;;;;;;88.97;53.20;;;20.70;66.90;;;;;;4963901;28;96797;-45
2023/07/19 07:45:55;;;;;;;88.68;53.50;;;20.70;66.80;;;;;;4961611;28;96238;-54
2023/07/19 07:48:22;;;;;;;88.88;53.42;;;20.80;66.80;;;;;;4960816;28;94821;-50
2023/07/19 07:50:49;;;;;;;89.85;53.35;;;20.80;66.50;;;;;;4961661;28;95426;-45
2023/07/19 07:53:15;;;;;;;88.55;53.50;;;20.80;66.70;;;;;;4964378;28;94611;-52
2023/07/19 07:55:41;;;;;;;89.72;53.60;;;20.80;66.60;;;;;;4962926;28;94829;-49
2023/07/19 07:58:07;;;;;;;88.57;53.45;;;20.80;67.30;;;;;;4962721;28;97916;-53
2023/07/19 08:00:33;;;;;;;90.55;53.85;;;20.90;67.10;;;;;;4963178;28;96197;-48
2023/07/19 08:02:58;;;;;;;89.63;53.75;;;21.00;66.50;;;;;;4960880;28;94258;-49
2023/07/19 08:05:33;;;;;;;89.22;53.65;;;21.00;66.30;;;;;;4965715;28;95877;-52
2023/07/19 08:07:59;;;;;;;90.20;53.63;;;21.00;66.20;;;;;;4968384;28;97374;-53
2023/07/19 08:10:24;;;;;;;91.15;53.70;;;21.00;66.20;;;;;;4961639;28;95787;-47
2023/07/19 08:13:06;;;;;;;89.65;53.83;;;21.10;66.90;;;;;;4966509;28;97533;-49
2023/07/19 08:15:32;;;;;;;89.78;53.63;;;21.10;67.20;;;;;;4964572;28;98998;-49
2023/07/19 08:17:57;;;;;;;89.40;53.60;;;21.10;66.20;;;;;;4965226;28;95219;-44
2023/07/19 08:20:24;;;;;;;90.05;53.83;;;21.10;66.50;;;;;;4957911;28;95909;-45
2023/07/19 08:22:50;;;;;;;90.38;53.78;;;21.20;66.20;;;;;;4952780;28;96859;-47
2023/07/19 08:25:19;;;;;;;92.68;54.90;;;21.20;66.40;;;;;;4963512;28;99224;-48
2023/07/19 08:27:44;;;;;;;91.05;54.25;;;21.20;67.60;;;;;;4964049;28;95209;-45
2023/07/19 08:30:15;;;;;;;91.90;54.17;;;21.30;67.60;;;;;;4965149;28;94636;-52
2023/07/19 08:32:47;;;;;;;90.72;54.00;;;21.30;67.70;;;;;;4961895;28;94805;-48
2023/07/19 08:35:14;;;;;;;96.07;55.88;;;21.30;67.10;;;;;;4961770;28;96249;-55
2023/07/19 08:37:42;;;;;;;91.93;54.40;;;21.30;68.20;;;;;;4974025;28;97734;-49
2023/07/19 08:40:09;;;;;;;93.00;54.63;;;21.40;66.90;;;;;;4966966;28;97237;-53
2023/07/19 08:42:35;;;;;;;94.47;54.65;;;21.40;66.80;;;;;;4961976;28;97602;-57
2023/07/19 08:45:02;;;;;;;92.72;54.53;;;21.40;67.00;;;;;;4971777;28;94825;-55
2023/07/19 08:47:29;;;;;;;95.55;55.35;;;21.50;66.70;;;;;;4963981;28;96992;-50
2023/07/19 08:49:56;;;;;;;90.78;54.33;;;21.50;67.60;;;;;;4964762;28;95128;-54
2023/07/19 08:52:22;;;;;;;91.90;54.70;;;21.60;66.70;;;;;;4962234;28;94795;-54
2023/07/19 08:54:48;;;;;;;93.75;54.95;;;21.60;67.00;;;;;;4956488;28;98433;-40
2023/07/19 08:57:14;;;;;;;93.50;55.38;;;21.60;67.40;;;;;;4963092;28;94846;-41
2023/07/19 08:59:40;;;;;;;94.78;55.72;;;21.70;68.10;;;;;;4965512;28;96245;-40
2023/07/19 09:02:06;;;;;;;94.90;55.20;;;21.70;67.40;;;;;;4967874;28;99723;-39
2023/07/19 09:04:32;;;;;;;94.55;55.55;;;21.70;66.90;;;;;;4950181;28;95513;-56
2023/07/19 09:07:02;;;;;;;93.15;55.10;;;21.80;67.50;;;;;;4952368;28;95086;-49
2023/07/19 09:09:28;;;;;;;93.93;55.03;;;21.80;66.40;;;;;;4961453;28;95377;-47
2023/07/19 09:11:54;;;;;;;92.38;55.05;;;21.80;66.40;;;;;;4969102;28;101969;-55
2023/07/19 09:14:34;;;;;;;94.28;55.05;;;21.90;66.60;;;;;;4972176;28;97124;-51
2023/07/19 09:17:00;;;;;;;91.03;54.50;;;21.90;66.40;;;;;;4964922;28;94385;-54
2023/07/19 09:19:26;;;;;;;91.32;54.75;;;21.90;67.20;;;;;;4964610;28;94454;-50
2023/07/19 09:21:51;;;;;;;92.00;54.75;;;21.90;66.30;;;;;;4961583;28;99910;-55
2023/07/19 09:24:17;;;;;;;94.55;55.30;;;21.90;66.30;;;;;;4963541;28;95884;-53
2023/07/19 09:26:52;;;;;;;92.95;54.80;;;22.00;66.50;;;;;;4968238;28;94876;-44
2023/07/19 09:29:19;;;;;;;93.22;54.97;;;22.00;66.00;;;;;;4963423;28;95838;-49
2023/07/19 09:31:53;;;;;;;93.05;54.50;;;22.00;66.00;;;;;;4961692;28;96959;-53
2023/07/19 09:34:25;;;;;;;92.57;55.25;;;22.10;65.50;;;;;;4961197;28;98152;-58
2023/07/19 09:36:51;;;;;;;93.13;55.00;;;22.10;66.70;;;;;;4963443;28;96412;-45
2023/07/19 09:39:17;;;;;;;94.13;54.65;;;22.20;62.40;;;;;;4967536;28;96480;-47
2023/07/19 09:41:46;;;;;;;92.78;54.50;;;22.20;62.10;;;;;;4960577;28;94935;-46
2023/07/19 09:44:15;;;;;;;90.80;54.50;;;22.20;59.90;;;;;;4958807;28;97834;-43
2023/07/19 09:46:41;;;;;;;91.20;54.58;;;22.20;60.10;;;;;;4959485;28;95507;-44
2023/07/19 09:49:07;;;;;;;92.57;54.67;;;22.30;60.50;;;;;;4957974;28;98964;-44
2023/07/19 09:51:34;;;;;;;92.28;54.53;;;22.40;59.90;;;;;;4961575;28;95945;-44
2023/07/19 09:54:21;;;;;;;91.88;54.88;;;22.40;59.50;;;;;;4961190;28;96437;-43
2023/07/19 09:56:47;;;;;;;98.63;54.95;;;22.40;59.80;;;;;;4958679;28;95415;-44
2023/07/19 09:59:44;;;;;;;91.93;54.60;;;22.40;58.90;;;;;;4944075;28;96604;-42
2023/07/19 10:02:11;;;;;;;93.18;54.40;;;22.30;58.40;;;;;;4955669;28;95494;-43
2023/07/19 10:04:38;;;;;;;93.00;54.95;;;22.20;58.00;;;;;;4963623;28;95008;-41
2023/07/19 10:07:07;;;;;;;92.25;54.70;;;22.30;58.30;;;;;;4966364;28;96373;-39
2023/07/19 10:09:40;;;;;;;90.65;54.50;;;22.30;57.80;;;;;;4957770;28;98307;-41
2023/07/19 10:12:15;;;;;;;91.78;54.55;;;22.30;57.00;;;;;;4962263;28;96664;-40
2023/07/19 10:15:07;;;;;;;90.88;54.58;;;22.30;58.10;;;;;;4961222;28;97803;-43
2023/07/19 10:17:51;;;;;;;92.57;54.78;;;22.30;57.20;;;;;;4959643;28;98628;-43
2023/07/19 10:20:16;;;;;;;92.50;54.63;;;22.50;57.50;;;;;;4961373;28;94976;-43
2023/07/19 10:22:55;;;;;;;93.35;55.13;;;22.50;56.60;;;;;;4959422;28;98673;-44
2023/07/19 10:25:48;;;;;;;91.40;55.00;;;22.50;57.20;;;;;;4943688;28;96110;-43
2023/07/19 10:28:29;;;;;;;93.90;55.30;;;22.50;56.90;;;;;;4961710;28;95687;-43
2023/07/19 10:31:01;;;;;;;93.68;54.65;;;22.40;57.20;;;;;;4963006;28;95593;-46
2023/07/19 10:33:28;;;;;;;93.65;54.92;;;22.30;57.50;;;;;;4963737;28;94284;-41
2023/07/19 10:35:59;;;;;;;91.90;54.75;;;22.40;58.00;;;;;;4948805;28;95614;-43
2023/07/19 10:38:27;;;;;;;93.15;54.97;;;22.50;58.10;;;;;;4955869;28;98620;-42
2023/07/19 10:41:02;;;;;;;90.82;55.05;;;22.60;57.80;;;;;;4938788;28;96726;-42
2023/07/19 10:43:30;;;;;;;91.95;54.85;;;22.60;57.70;;;;;;4961259;28;96759;-42
2023/07/19 10:45:59;;;;;;;91.60;54.80;;;22.50;57.50;;;;;;4964766;28;95014;-42
2023/07/19 10:48:28;;;;;;;90.72;55.13;;;22.50;57.70;;;;;;4964522;28;99343;-42
2023/07/19 10:50:58;;;;;;;93.93;54.90;;;22.50;57.60;;;;;;4964114;28;96428;-42
2023/07/19 10:53:24;;;;;;;94.75;54.88;;;22.60;57.50;;;;;;4960666;28;95126;-40
2023/07/19 10:55:54;;;;;;;93.03;55.53;;;22.70;57.40;;;;;;4954784;28;96651;-43
2023/07/19 10:58:19;;;;;;;93.38;55.45;;;22.80;56.70;;;;;;4964105;28;94012;-42
2023/07/19 11:00:45;;;;;;;93.22;54.75;;;22.70;55.80;;;;;;4959361;28;98417;-42
2023/07/19 11:03:15;;;;;;;92.78;55.00;;;22.70;56.20;;;;;;4957692;28;96688;-42
2023/07/19 11:05:47;;;;;;;92.22;54.85;;;22.60;56.00;;;;;;4960225;28;96858;-41
2023/07/19 11:08:39;;;;;;;93.78;54.65;;;22.50;56.80;;;;;;4935513;28;99808;-43
2023/07/19 11:11:07;;;;;;;91.38;54.75;;;22.40;57.20;;;;;;4953698;28;94975;-44
2023/07/19 11:13:34;;;;;;;90.60;54.78;;;22.50;57.50;;;;;;4960366;28;94705;-46
2023/07/19 11:16:00;;;;;;;92.20;55.13;;;22.50;57.50;;;;;;4956608;28;96190;-44
2023/07/19 11:18:34;;;;;;;94.53;55.65;;;22.60;57.50;;;;;;4965483;28;95271;-42
2023/07/19 11:21:00;;;;;;;94.10;55.53;;;22.80;58.20;;;;;;4961287;28;97663;-44
2023/07/19 11:23:26;;;;;;;92.25;55.38;;;22.90;57.40;;;;;;4965497;28;95226;-45
2023/07/19 11:26:05;;;;;;;96.10;55.42;;;22.90;56.70;;;;;;4959488;28;95250;-42
2023/07/19 11:28:44;;;;;;;92.93;55.47;;;23.00;57.50;;;;;;4960803;28;96816;-43
2023/07/19 11:31:11;;;;;;;92.80;55.40;;;23.00;56.50;;;;;;4957723;28;97766;-41
2023/07/19 11:33:39;;;;;;;92.07;55.10;;;22.90;56.00;;;;;;4959001;28;96221;-42
2023/07/19 11:36:10;;;;;;;91.60;55.20;;;22.70;57.10;;;;;;4941282;28;95116;-43
2023/07/19 11:38:40;;;;;;;94.90;55.22;;;22.60;57.10;;;;;;4941218;28;95141;-41
2023/07/19 11:41:06;;;;;;;95.13;55.13;;;22.50;56.90;;;;;;4957611;28;98210;-40
2023/07/19 11:43:32;;;;;;;92.20;54.65;;;22.30;57.50;;;;;;4957589;28;96665;-40
2023/07/19 11:45:58;;;;;;;92.13;54.83;;;22.30;58.30;;;;;;4957574;28;96417;-40
2023/07/19 11:48:23;;;;;;;93.97;54.92;;;22.30;58.10;;;;;;4957791;28;94000;-40
2023/07/19 11:50:49;;;;;;;94.25;54.75;;;22.30;58.50;;;;;;4959935;28;94808;-42
2023/07/19 11:53:14;;;;;;;91.10;54.80;;;22.20;59.40;;;;;;4954496;28;95456;-45
2023/07/19 11:55:40;;;;;;;91.53;54.65;;;22.10;60.00;;;;;;4956779;28;96343;-46
2023/07/19 11:58:07;;;;;;;90.47;54.78;;;22.10;60.30;;;;;;4959874;28;98400;-43
2023/07/19 12:00:33;;;;;;;95.55;55.05;;;22.20;60.50;;;;;;4962437;28;95367;-42
2023/07/19 12:03:00;;;;;;;93.43;54.80;;;22.40;60.60;;;;;;4957810;28;98380;-41
2023/07/19 12:05:26;;;;;;;91.70;55.30;;;22.60;60.20;;;;;;4957999;28;98970;-43
2023/07/19 12:07:52;;;;;;;90.85;55.08;;;22.70;58.50;;;;;;4957524;28;96536;-42
2023/07/19 12:10:19;;;;;;;92.05;55.25;;;22.80;58.40;;;;;;4961458;28;98060;-44
2023/07/19 12:12:46;;;;;;;93.93;55.92;;;23.00;58.70;;;;;;4972826;28;94561;-42
2023/07/19 12:15:12;;;;;;;93.93;55.92;;;23.10;57.50;;;;;;4964969;28;94791;-41
2023/07/19 12:17:38;;;;;;;94.68;56.17;;;23.10;56.30;;;;;;4966893;28;95785;-41
2023/07/19 12:20:06;;;;;;;93.78;55.72;;;23.20;56.50;;;;;;4959888;28;99876;-41
2023/07/19 12:22:33;;;;;;;94.13;55.55;;;23.20;57.70;;;;;;4967458;28;96353;-41
2023/07/19 12:24:58;;;;;;;95.20;56.15;;;23.10;56.40;;;;;;4969021;28;95875;-41